sensor_id;sensor_type;location;lat;lon;timestamp;P1;durP1;ratioP1;P2;durP2;ratioP2
51216;SDS011;37283;49.760;8.648;2023-02-11T00:00:08;41.58;;;27.58;;
51216;SDS011;37283;49.760;8.648;2023-02-11T00:02:36;46.03;;;28.23;;
51216;SDS011;37283;49.760;8.648;2023-02-11T00:05:02;42.70;;;27.83;;
51216;SDS011;37283;49.760;8.648;2023-02-11T00:07:30;42.60;;;28.17;;
51216;SDS011;37283;49.760;8.648;2023-02-11T00:09:57;40.75;;;26.58;;
51216;SDS011;37283;49.760;8.648;2023-02-11T00:12:24;43.97;;;27.85;;
51216;SDS011;37283;49.760;8.648;2023-02-11T00:14:51;42.35;;;26.85;;
51216;SDS011;37283;49.760;8.648;2023-02-11T00:17:17;46.85;;;27.60;;
51216;SDS011;37283;49.760;8.648;2023-02-11T00:19:44;40.13;;;25.95;;
51216;SDS011;37283;49.760;8.648;2023-02-11T00:22:14;42.38;;;27.55;;
51216;SDS011;37283;49.760;8.648;2023-02-11T00:24:41;41.10;;;28.63;;
51216;SDS011;37283;49.760;8.648;2023-02-11T00:27:08;41.05;;;27.77;;
51216;SDS011;37283;49.760;8.648;2023-02-11T00:29:35;42.05;;;28.27;;
51216;SDS011;37283;49.760;8.648;2023-02-11T00:32:02;42.28;;;27.45;;
51216;SDS011;37283;49.760;8.648;2023-02-11T00:34:30;43.97;;;27.92;;
51216;SDS011;37283;49.760;8.648;2023-02-11T00:37:00;43.38;;;29.33;;
51216;SDS011;37283;49.760;8.648;2023-02-11T00:39:27;44.85;;;28.65;;
51216;SDS011;37283;49.760;8.648;2023-02-11T00:41:54;38.47;;;27.10;;
51216;SDS011;37283;49.760;8.648;2023-02-11T00:44:20;41.13;;;26.33;;
51216;SDS011;37283;49.760;8.648;2023-02-11T00:46:47;41.38;;;28.02;;
51216;SDS011;37283;49.760;8.648;2023-02-11T00:49:13;43.55;;;28.85;;
51216;SDS011;37283;49.760;8.648;2023-02-11T00:51:40;40.75;;;27.83;;
51216;SDS011;37283;49.760;8.648;2023-02-11T00:54:07;40.20;;;27.48;;
51216;SDS011;37283;49.760;8.648;2023-02-11T00:56:34;40.50;;;27.65;;
51216;SDS011;37283;49.760;8.648;2023-02-11T00:59:00;41.20;;;27.33;;
51216;SDS011;37283;49.760;8.648;2023-02-11T01:01:27;39.13;;;27.38;;
51216;SDS011;37283;49.760;8.648;2023-02-11T01:03:53;42.78;;;26.85;;
51216;SDS011;37283;49.760;8.648;2023-02-11T01:06:21;39.13;;;26.90;;
51216;SDS011;37283;49.760;8.648;2023-02-11T01:08:48;40.30;;;25.35;;
51216;SDS011;37283;49.760;8.648;2023-02-11T01:11:17;44.80;;;26.40;;
51216;SDS011;37283;49.760;8.648;2023-02-11T01:13:44;40.10;;;26.25;;
51216;SDS011;37283;49.760;8.648;2023-02-11T01:16:11;38.83;;;25.45;;
51216;SDS011;37283;49.760;8.648;2023-02-11T01:18:38;35.92;;;24.80;;
51216;SDS011;37283;49.760;8.648;2023-02-11T01:21:08;39.90;;;26.08;;
51216;SDS011;37283;49.760;8.648;2023-02-11T01:23:35;37.45;;;24.45;;
51216;SDS011;37283;49.760;8.648;2023-02-11T01:26:03;35.35;;;24.50;;
51216;SDS011;37283;49.760;8.648;2023-02-11T01:28:29;33.55;;;24.00;;
51216;SDS011;37283;49.760;8.648;2023-02-11T01:30:59;31.95;;;23.15;;
51216;SDS011;37283;49.760;8.648;2023-02-11T01:33:26;34.17;;;23.27;;
51216;SDS011;37283;49.760;8.648;2023-02-11T01:35:52;35.58;;;23.15;;
51216;SDS011;37283;49.760;8.648;2023-02-11T01:38:20;32.15;;;22.10;;
51216;SDS011;37283;49.760;8.648;2023-02-11T01:43:25;28.90;;;21.50;;
51216;SDS011;37283;49.760;8.648;2023-02-11T01:45:56;30.85;;;21.67;;
51216;SDS011;37283;49.760;8.648;2023-02-11T01:48:35;32.95;;;22.02;;
51216;SDS011;37283;49.760;8.648;2023-02-11T01:53:50;32.42;;;21.13;;
51216;SDS011;37283;49.760;8.648;2023-02-11T01:56:38;31.50;;;21.88;;
51216;SDS011;37283;49.760;8.648;2023-02-11T01:59:29;32.55;;;22.95;;
51216;SDS011;37283;49.760;8.648;2023-02-11T02:01:59;31.75;;;22.27;;
51216;SDS011;37283;49.760;8.648;2023-02-11T02:04:30;34.28;;;23.05;;
51216;SDS011;37283;49.760;8.648;2023-02-11T02:07:00;28.98;;;20.52;;
51216;SDS011;37283;49.760;8.648;2023-02-11T02:09:29;30.65;;;21.40;;
51216;SDS011;37283;49.760;8.648;2023-02-11T02:12:02;34.40;;;22.17;;
51216;SDS011;37283;49.760;8.648;2023-02-11T02:14:29;34.35;;;23.08;;
51216;SDS011;37283;49.760;8.648;2023-02-11T02:16:55;32.85;;;22.02;;
51216;SDS011;37283;49.760;8.648;2023-02-11T02:35:57;27.75;;;20.02;;
51216;SDS011;37283;49.760;8.648;2023-02-11T02:41:22;32.80;;;20.10;;
51216;SDS011;37283;49.760;8.648;2023-02-11T02:43:52;30.98;;;20.75;;
51216;SDS011;37283;49.760;8.648;2023-02-11T02:46:23;30.65;;;20.75;;
51216;SDS011;37283;49.760;8.648;2023-02-11T02:48:51;33.47;;;20.55;;
51216;SDS011;37283;49.760;8.648;2023-02-11T02:51:24;30.20;;;20.88;;
51216;SDS011;37283;49.760;8.648;2023-02-11T02:59:40;33.05;;;19.80;;
51216;SDS011;37283;49.760;8.648;2023-02-11T03:07:41;28.25;;;19.50;;
51216;SDS011;37283;49.760;8.648;2023-02-11T03:10:18;29.70;;;19.52;;
51216;SDS011;37283;49.760;8.648;2023-02-11T03:12:47;28.88;;;19.05;;
51216;SDS011;37283;49.760;8.648;2023-02-11T03:15:15;30.38;;;19.13;;
51216;SDS011;37283;49.760;8.648;2023-02-11T03:17:43;28.50;;;19.90;;
51216;SDS011;37283;49.760;8.648;2023-02-11T03:20:13;27.85;;;20.00;;
51216;SDS011;37283;49.760;8.648;2023-02-11T03:22:47;32.35;;;19.40;;
51216;SDS011;37283;49.760;8.648;2023-02-11T03:25:16;27.25;;;19.95;;
51216;SDS011;37283;49.760;8.648;2023-02-11T03:27:49;29.92;;;21.13;;
51216;SDS011;37283;49.760;8.648;2023-02-11T03:30:24;29.45;;;20.50;;
51216;SDS011;37283;49.760;8.648;2023-02-11T03:32:59;28.02;;;20.10;;
51216;SDS011;37283;49.760;8.648;2023-02-11T03:36:01;32.25;;;20.50;;
51216;SDS011;37283;49.760;8.648;2023-02-11T03:38:41;33.05;;;20.92;;
51216;SDS011;37283;49.760;8.648;2023-02-11T03:41:14;31.20;;;20.83;;
51216;SDS011;37283;49.760;8.648;2023-02-11T03:43:43;28.60;;;20.52;;
51216;SDS011;37283;49.760;8.648;2023-02-11T03:46:13;29.90;;;20.88;;
51216;SDS011;37283;49.760;8.648;2023-02-11T03:48:43;32.17;;;21.58;;
51216;SDS011;37283;49.760;8.648;2023-02-11T03:51:13;28.73;;;20.98;;
51216;SDS011;37283;49.760;8.648;2023-02-11T03:53:40;31.67;;;21.50;;
51216;SDS011;37283;49.760;8.648;2023-02-11T03:56:09;30.17;;;21.90;;
51216;SDS011;37283;49.760;8.648;2023-02-11T03:58:38;31.15;;;22.08;;
51216;SDS011;37283;49.760;8.648;2023-02-11T04:01:05;29.83;;;20.98;;
51216;SDS011;37283;49.760;8.648;2023-02-11T04:03:34;31.35;;;21.20;;
51216;SDS011;37283;49.760;8.648;2023-02-11T04:06:00;31.75;;;21.60;;
51216;SDS011;37283;49.760;8.648;2023-02-11T04:08:27;29.42;;;21.30;;
51216;SDS011;37283;49.760;8.648;2023-02-11T04:10:54;34.30;;;21.73;;
51216;SDS011;37283;49.760;8.648;2023-02-11T04:13:20;29.77;;;20.90;;
51216;SDS011;37283;49.760;8.648;2023-02-11T04:15:47;36.10;;;24.52;;
51216;SDS011;37283;49.760;8.648;2023-02-11T04:18:14;32.38;;;22.13;;
51216;SDS011;37283;49.760;8.648;2023-02-11T04:20:41;38.30;;;22.55;;
51216;SDS011;37283;49.760;8.648;2023-02-11T04:23:07;30.90;;;21.67;;
51216;SDS011;37283;49.760;8.648;2023-02-11T04:25:35;31.90;;;21.52;;
51216;SDS011;37283;49.760;8.648;2023-02-11T04:28:01;31.75;;;21.35;;
51216;SDS011;37283;49.760;8.648;2023-02-11T04:30:28;30.35;;;21.23;;
51216;SDS011;37283;49.760;8.648;2023-02-11T04:32:54;31.15;;;21.23;;
51216;SDS011;37283;49.760;8.648;2023-02-11T04:35:21;29.77;;;20.83;;
51216;SDS011;37283;49.760;8.648;2023-02-11T04:37:47;34.70;;;23.73;;
51216;SDS011;37283;49.760;8.648;2023-02-11T04:40:14;34.60;;;22.67;;
51216;SDS011;37283;49.760;8.648;2023-02-11T04:42:40;31.15;;;22.00;;
51216;SDS011;37283;49.760;8.648;2023-02-11T04:45:07;34.70;;;22.90;;
51216;SDS011;37283;49.760;8.648;2023-02-11T04:47:34;34.13;;;22.90;;
51216;SDS011;37283;49.760;8.648;2023-02-11T04:50:01;35.30;;;22.33;;
51216;SDS011;37283;49.760;8.648;2023-02-11T04:52:27;34.35;;;22.75;;
51216;SDS011;37283;49.760;8.648;2023-02-11T04:54:54;31.67;;;21.95;;
51216;SDS011;37283;49.760;8.648;2023-02-11T04:57:20;32.53;;;22.33;;
51216;SDS011;37283;49.760;8.648;2023-02-11T04:59:47;33.30;;;21.08;;
51216;SDS011;37283;49.760;8.648;2023-02-11T05:02:13;32.88;;;22.17;;
51216;SDS011;37283;49.760;8.648;2023-02-11T05:04:40;33.58;;;21.13;;
51216;SDS011;37283;49.760;8.648;2023-02-11T05:07:06;30.35;;;21.10;;
51216;SDS011;37283;49.760;8.648;2023-02-11T05:09:33;30.98;;;22.20;;
51216;SDS011;37283;49.760;8.648;2023-02-11T05:11:59;31.20;;;21.02;;
51216;SDS011;37283;49.760;8.648;2023-02-11T05:14:26;31.65;;;21.05;;
51216;SDS011;37283;49.760;8.648;2023-02-11T05:16:52;32.03;;;21.33;;
51216;SDS011;37283;49.760;8.648;2023-02-11T05:19:19;34.38;;;21.88;;
51216;SDS011;37283;49.760;8.648;2023-02-11T05:21:45;34.97;;;22.67;;
51216;SDS011;37283;49.760;8.648;2023-02-11T05:24:27;30.98;;;21.75;;
51216;SDS011;37283;49.760;8.648;2023-02-11T05:26:54;36.13;;;22.30;;
51216;SDS011;37283;49.760;8.648;2023-02-11T05:29:20;34.80;;;21.77;;
51216;SDS011;37283;49.760;8.648;2023-02-11T05:31:47;32.13;;;20.65;;
51216;SDS011;37283;49.760;8.648;2023-02-11T05:34:14;26.92;;;20.27;;
51216;SDS011;37283;49.760;8.648;2023-02-11T05:36:40;29.55;;;21.00;;
51216;SDS011;37283;49.760;8.648;2023-02-11T05:39:07;28.60;;;20.25;;
51216;SDS011;37283;49.760;8.648;2023-02-11T05:41:33;31.08;;;20.67;;
51216;SDS011;37283;49.760;8.648;2023-02-11T05:44:00;28.35;;;19.70;;
51216;SDS011;37283;49.760;8.648;2023-02-11T05:46:26;30.20;;;20.42;;
51216;SDS011;37283;49.760;8.648;2023-02-11T05:48:53;29.23;;;20.17;;
51216;SDS011;37283;49.760;8.648;2023-02-11T05:51:21;28.17;;;19.67;;
51216;SDS011;37283;49.760;8.648;2023-02-11T05:53:50;34.55;;;20.02;;
51216;SDS011;37283;49.760;8.648;2023-02-11T05:56:16;30.88;;;21.17;;
51216;SDS011;37283;49.760;8.648;2023-02-11T05:58:43;26.92;;;19.75;;
51216;SDS011;37283;49.760;8.648;2023-02-11T06:01:09;25.98;;;18.90;;
51216;SDS011;37283;49.760;8.648;2023-02-11T06:03:36;30.42;;;19.80;;
51216;SDS011;37283;49.760;8.648;2023-02-11T06:06:02;27.08;;;19.05;;
51216;SDS011;37283;49.760;8.648;2023-02-11T06:08:29;28.80;;;19.55;;
51216;SDS011;37283;49.760;8.648;2023-02-11T06:10:55;29.52;;;19.65;;
51216;SDS011;37283;49.760;8.648;2023-02-11T06:13:22;32.25;;;19.17;;
51216;SDS011;37283;49.760;8.648;2023-02-11T06:15:54;28.80;;;18.90;;
51216;SDS011;37283;49.760;8.648;2023-02-11T06:18:21;29.85;;;18.25;;
51216;SDS011;37283;49.760;8.648;2023-02-11T06:20:48;30.15;;;19.17;;
51216;SDS011;37283;49.760;8.648;2023-02-11T06:23:14;26.80;;;18.98;;
51216;SDS011;37283;49.760;8.648;2023-02-11T06:25:41;26.50;;;18.30;;
51216;SDS011;37283;49.760;8.648;2023-02-11T06:28:08;28.73;;;18.77;;
51216;SDS011;37283;49.760;8.648;2023-02-11T06:30:36;26.90;;;18.67;;
51216;SDS011;37283;49.760;8.648;2023-02-11T06:33:03;25.58;;;18.48;;
51216;SDS011;37283;49.760;8.648;2023-02-11T06:35:29;28.00;;;17.70;;
51216;SDS011;37283;49.760;8.648;2023-02-11T06:37:56;25.35;;;18.58;;
51216;SDS011;37283;49.760;8.648;2023-02-11T06:40:22;27.38;;;19.10;;
51216;SDS011;37283;49.760;8.648;2023-02-11T06:42:49;29.13;;;19.88;;
51216;SDS011;37283;49.760;8.648;2023-02-11T06:45:15;27.95;;;18.95;;
51216;SDS011;37283;49.760;8.648;2023-02-11T06:47:42;25.70;;;18.77;;
51216;SDS011;37283;49.760;8.648;2023-02-11T06:50:10;31.20;;;19.55;;
51216;SDS011;37283;49.760;8.648;2023-02-11T06:52:38;26.67;;;17.95;;
51216;SDS011;37283;49.760;8.648;2023-02-11T06:55:04;27.27;;;19.25;;
51216;SDS011;37283;49.760;8.648;2023-02-11T06:57:31;31.08;;;19.13;;
51216;SDS011;37283;49.760;8.648;2023-02-11T06:59:57;26.00;;;17.45;;
51216;SDS011;37283;49.760;8.648;2023-02-11T07:02:24;26.63;;;19.00;;
51216;SDS011;37283;49.760;8.648;2023-02-11T07:04:50;28.52;;;17.73;;
51216;SDS011;37283;49.760;8.648;2023-02-11T07:07:17;25.25;;;17.55;;
51216;SDS011;37283;49.760;8.648;2023-02-11T07:09:43;29.10;;;18.38;;
51216;SDS011;37283;49.760;8.648;2023-02-11T07:12:10;29.05;;;17.67;;
51216;SDS011;37283;49.760;8.648;2023-02-11T07:14:36;25.40;;;18.27;;
51216;SDS011;37283;49.760;8.648;2023-02-11T07:17:03;25.08;;;18.27;;
51216;SDS011;37283;49.760;8.648;2023-02-11T07:19:30;26.85;;;17.90;;
51216;SDS011;37283;49.760;8.648;2023-02-11T07:21:56;27.33;;;18.15;;
51216;SDS011;37283;49.760;8.648;2023-02-11T07:24:23;27.63;;;19.08;;
51216;SDS011;37283;49.760;8.648;2023-02-11T07:26:50;26.35;;;18.35;;
51216;SDS011;37283;49.760;8.648;2023-02-11T07:29:17;27.92;;;18.17;;
51216;SDS011;37283;49.760;8.648;2023-02-11T07:31:43;26.50;;;18.05;;
51216;SDS011;37283;49.760;8.648;2023-02-11T07:34:10;29.17;;;19.75;;
51216;SDS011;37283;49.760;8.648;2023-02-11T07:36:39;28.23;;;18.65;;
51216;SDS011;37283;49.760;8.648;2023-02-11T07:39:08;27.58;;;18.63;;
51216;SDS011;37283;49.760;8.648;2023-02-11T07:41:35;28.60;;;19.52;;
51216;SDS011;37283;49.760;8.648;2023-02-11T07:44:03;35.17;;;20.58;;
51216;SDS011;37283;49.760;8.648;2023-02-11T07:46:30;29.63;;;19.55;;
51216;SDS011;37283;49.760;8.648;2023-02-11T07:48:57;28.80;;;18.33;;
51216;SDS011;37283;49.760;8.648;2023-02-11T07:51:24;27.75;;;19.17;;
51216;SDS011;37283;49.760;8.648;2023-02-11T07:53:53;29.70;;;19.42;;
51216;SDS011;37283;49.760;8.648;2023-02-11T07:56:20;30.90;;;17.77;;
51216;SDS011;37283;49.760;8.648;2023-02-11T07:58:47;27.23;;;19.15;;
51216;SDS011;37283;49.760;8.648;2023-02-11T08:01:15;27.15;;;19.30;;
51216;SDS011;37283;49.760;8.648;2023-02-11T08:03:44;25.95;;;18.48;;
51216;SDS011;37283;49.760;8.648;2023-02-11T08:06:12;30.17;;;20.27;;
51216;SDS011;37283;49.760;8.648;2023-02-11T08:08:39;31.65;;;20.50;;
51216;SDS011;37283;49.760;8.648;2023-02-11T08:11:12;37.92;;;20.58;;
51216;SDS011;37283;49.760;8.648;2023-02-11T08:13:46;28.50;;;19.55;;
51216;SDS011;37283;49.760;8.648;2023-02-11T08:16:20;30.33;;;19.92;;
51216;SDS011;37283;49.760;8.648;2023-02-11T08:18:48;29.15;;;19.90;;
51216;SDS011;37283;49.760;8.648;2023-02-11T08:21:15;29.13;;;20.02;;
51216;SDS011;37283;49.760;8.648;2023-02-11T08:23:42;25.90;;;18.33;;
51216;SDS011;37283;49.760;8.648;2023-02-11T08:26:12;28.98;;;19.45;;
51216;SDS011;37283;49.760;8.648;2023-02-11T08:28:41;31.08;;;21.05;;
51216;SDS011;37283;49.760;8.648;2023-02-11T08:31:13;31.00;;;20.73;;
51216;SDS011;37283;49.760;8.648;2023-02-11T08:33:42;33.10;;;21.27;;
51216;SDS011;37283;49.760;8.648;2023-02-11T08:36:10;33.60;;;22.02;;
51216;SDS011;37283;49.760;8.648;2023-02-11T08:38:40;32.83;;;22.40;;
51216;SDS011;37283;49.760;8.648;2023-02-11T08:41:06;31.33;;;21.30;;
51216;SDS011;37283;49.760;8.648;2023-02-11T08:43:33;34.03;;;22.10;;
51216;SDS011;37283;49.760;8.648;2023-02-11T08:46:01;34.17;;;21.73;;
51216;SDS011;37283;49.760;8.648;2023-02-11T08:48:28;34.63;;;23.02;;
51216;SDS011;37283;49.760;8.648;2023-02-11T08:50:55;32.65;;;22.52;;
51216;SDS011;37283;49.760;8.648;2023-02-11T08:53:22;32.70;;;22.90;;
51216;SDS011;37283;49.760;8.648;2023-02-11T08:55:50;35.25;;;23.88;;
51216;SDS011;37283;49.760;8.648;2023-02-11T08:58:18;32.47;;;22.87;;
51216;SDS011;37283;49.760;8.648;2023-02-11T09:00:45;35.15;;;23.55;;
51216;SDS011;37283;49.760;8.648;2023-02-11T09:03:12;37.78;;;23.52;;
51216;SDS011;37283;49.760;8.648;2023-02-11T09:05:40;35.40;;;23.13;;
51216;SDS011;37283;49.760;8.648;2023-02-11T09:08:08;32.53;;;22.80;;
51216;SDS011;37283;49.760;8.648;2023-02-11T09:10:34;32.65;;;23.63;;
51216;SDS011;37283;49.760;8.648;2023-02-11T09:13:01;35.80;;;23.40;;
51216;SDS011;37283;49.760;8.648;2023-02-11T09:15:28;35.88;;;23.80;;
51216;SDS011;37283;49.760;8.648;2023-02-11T09:17:55;32.33;;;23.08;;
51216;SDS011;37283;49.760;8.648;2023-02-11T09:20:22;36.60;;;24.25;;
51216;SDS011;37283;49.760;8.648;2023-02-11T09:22:48;34.17;;;23.80;;
51216;SDS011;37283;49.760;8.648;2023-02-11T09:25:15;33.00;;;23.00;;
51216;SDS011;37283;49.760;8.648;2023-02-11T09:27:42;34.92;;;24.40;;
51216;SDS011;37283;49.760;8.648;2023-02-11T09:30:08;34.13;;;24.08;;
51216;SDS011;37283;49.760;8.648;2023-02-11T09:32:35;36.00;;;23.58;;
51216;SDS011;37283;49.760;8.648;2023-02-11T09:35:02;33.10;;;23.75;;
51216;SDS011;37283;49.760;8.648;2023-02-11T09:37:28;30.52;;;23.70;;
51216;SDS011;37283;49.760;8.648;2023-02-11T09:39:55;33.60;;;23.67;;
51216;SDS011;37283;49.760;8.648;2023-02-11T09:42:38;33.30;;;23.00;;
51216;SDS011;37283;49.760;8.648;2023-02-11T09:45:16;34.20;;;23.45;;
51216;SDS011;37283;49.760;8.648;2023-02-11T09:47:49;35.83;;;24.35;;
51216;SDS011;37283;49.760;8.648;2023-02-11T09:50:23;34.90;;;24.23;;
51216;SDS011;37283;49.760;8.648;2023-02-11T09:53:40;35.22;;;24.13;;
51216;SDS011;37283;49.760;8.648;2023-02-11T09:55:55;34.05;;;22.15;;
51216;SDS011;37283;49.760;8.648;2023-02-11T09:58:25;33.40;;;24.30;;
51216;SDS011;37283;49.760;8.648;2023-02-11T10:06:17;34.13;;;23.13;;
51216;SDS011;37283;49.760;8.648;2023-02-11T10:08:56;37.08;;;25.15;;
51216;SDS011;37283;49.760;8.648;2023-02-11T10:14:26;34.33;;;23.65;;
51216;SDS011;37283;49.760;8.648;2023-02-11T10:17:44;34.80;;;24.65;;
51216;SDS011;37283;49.760;8.648;2023-02-11T10:20:02;43.28;;;29.50;;
51216;SDS011;37283;49.760;8.648;2023-02-11T10:22:49;33.53;;;24.85;;
51216;SDS011;37283;49.760;8.648;2023-02-11T10:25:25;38.72;;;25.08;;
51216;SDS011;37283;49.760;8.648;2023-02-11T10:28:17;38.50;;;26.70;;
51216;SDS011;37283;49.760;8.648;2023-02-11T10:30:48;41.33;;;28.63;;
51216;SDS011;37283;49.760;8.648;2023-02-11T10:33:28;37.97;;;25.05;;
51216;SDS011;37283;49.760;8.648;2023-02-11T10:35:57;40.85;;;28.48;;
51216;SDS011;37283;49.760;8.648;2023-02-11T10:38:24;42.53;;;28.88;;
51216;SDS011;37283;49.760;8.648;2023-02-11T10:40:51;36.95;;;24.42;;
51216;SDS011;37283;49.760;8.648;2023-02-11T10:43:20;40.53;;;29.35;;
51216;SDS011;37283;49.760;8.648;2023-02-11T10:45:50;40.15;;;28.30;;
51216;SDS011;37283;49.760;8.648;2023-02-11T10:53:42;38.92;;;27.27;;
51216;SDS011;37283;49.760;8.648;2023-02-11T10:56:25;34.20;;;23.80;;
51216;SDS011;37283;49.760;8.648;2023-02-11T10:59:38;33.33;;;25.10;;
51216;SDS011;37283;49.760;8.648;2023-02-11T11:01:51;35.40;;;24.92;;
51216;SDS011;37283;49.760;8.648;2023-02-11T11:04:25;36.53;;;27.52;;
51216;SDS011;37283;49.760;8.648;2023-02-11T11:06:58;34.85;;;25.90;;
51216;SDS011;37283;49.760;8.648;2023-02-11T11:09:57;34.72;;;25.15;;
51216;SDS011;37283;49.760;8.648;2023-02-11T11:12:45;36.03;;;26.65;;
51216;SDS011;37283;49.760;8.648;2023-02-11T11:17:44;35.80;;;25.73;;
51216;SDS011;37283;49.760;8.648;2023-02-11T11:22:43;32.65;;;25.17;;
51216;SDS011;37283;49.760;8.648;2023-02-11T11:25:23;34.88;;;26.92;;
51216;SDS011;37283;49.760;8.648;2023-02-11T11:27:52;33.40;;;24.65;;
51216;SDS011;37283;49.760;8.648;2023-02-11T11:30:20;35.15;;;25.02;;
51216;SDS011;37283;49.760;8.648;2023-02-11T11:32:48;36.33;;;25.35;;
51216;SDS011;37283;49.760;8.648;2023-02-11T11:35:23;32.45;;;23.92;;
51216;SDS011;37283;49.760;8.648;2023-02-11T11:37:52;33.17;;;24.67;;
51216;SDS011;37283;49.760;8.648;2023-02-11T11:43:01;31.70;;;23.55;;
51216;SDS011;37283;49.760;8.648;2023-02-11T11:45:29;34.92;;;24.42;;
51216;SDS011;37283;49.760;8.648;2023-02-11T11:53:44;36.28;;;25.40;;
51216;SDS011;37283;49.760;8.648;2023-02-11T11:58:41;34.28;;;24.48;;
51216;SDS011;37283;49.760;8.648;2023-02-11T12:01:28;31.95;;;24.45;;
51216;SDS011;37283;49.760;8.648;2023-02-11T12:21:47;34.08;;;24.45;;
51216;SDS011;37283;49.760;8.648;2023-02-11T12:35:23;33.47;;;25.48;;
51216;SDS011;37283;49.760;8.648;2023-02-11T12:40:45;35.92;;;26.30;;
51216;SDS011;37283;49.760;8.648;2023-02-11T12:43:36;32.65;;;24.00;;
51216;SDS011;37283;49.760;8.648;2023-02-11T12:48:55;36.90;;;24.42;;
51216;SDS011;37283;49.760;8.648;2023-02-11T12:51:49;31.45;;;23.55;;
51216;SDS011;37283;49.760;8.648;2023-02-11T12:54:37;36.28;;;24.40;;
51216;SDS011;37283;49.760;8.648;2023-02-11T13:02:30;31.15;;;23.35;;
51216;SDS011;37283;49.760;8.648;2023-02-11T13:05:07;34.33;;;23.70;;
51216;SDS011;37283;49.760;8.648;2023-02-11T13:07:52;37.70;;;24.40;;
51216;SDS011;37283;49.760;8.648;2023-02-11T13:10:29;36.55;;;24.83;;
51216;SDS011;37283;49.760;8.648;2023-02-11T13:12:58;33.40;;;24.08;;
51216;SDS011;37283;49.760;8.648;2023-02-11T13:15:54;30.65;;;23.20;;
51216;SDS011;37283;49.760;8.648;2023-02-11T13:18:39;34.03;;;24.50;;
51216;SDS011;37283;49.760;8.648;2023-02-11T13:23:53;31.20;;;24.00;;
51216;SDS011;37283;49.760;8.648;2023-02-11T13:28:59;31.23;;;24.13;;
51216;SDS011;37283;49.760;8.648;2023-02-11T13:31:34;33.80;;;24.80;;
51216;SDS011;37283;49.760;8.648;2023-02-11T13:34:01;32.30;;;22.65;;
51216;SDS011;37283;49.760;8.648;2023-02-11T13:36:29;30.70;;;23.55;;
51216;SDS011;37283;49.760;8.648;2023-02-11T13:39:02;35.63;;;24.60;;
51216;SDS011;37283;49.760;8.648;2023-02-11T13:41:34;33.30;;;24.38;;
51216;SDS011;37283;49.760;8.648;2023-02-11T13:46:48;28.33;;;21.85;;
51216;SDS011;37283;49.760;8.648;2023-02-11T13:49:29;30.90;;;21.80;;
51216;SDS011;37283;49.760;8.648;2023-02-11T13:51:56;33.88;;;22.85;;
51216;SDS011;37283;49.760;8.648;2023-02-11T13:54:25;29.98;;;22.52;;
51216;SDS011;37283;49.760;8.648;2023-02-11T14:16:16;33.20;;;22.88;;
51216;SDS011;37283;49.760;8.648;2023-02-11T14:19:02;33.65;;;23.55;;
51216;SDS011;37283;49.760;8.648;2023-02-11T14:21:33;31.35;;;23.45;;
51216;SDS011;37283;49.760;8.648;2023-02-11T14:31:37;31.15;;;21.77;;
51216;SDS011;37283;49.760;8.648;2023-02-11T14:36:59;30.60;;;23.05;;
51216;SDS011;37283;49.760;8.648;2023-02-11T14:39:36;30.98;;;22.17;;
51216;SDS011;37283;49.760;8.648;2023-02-11T14:42:14;28.88;;;20.65;;
51216;SDS011;37283;49.760;8.648;2023-02-11T14:44:44;28.70;;;21.23;;
51216;SDS011;37283;49.760;8.648;2023-02-11T14:47:16;29.48;;;21.17;;
51216;SDS011;37283;49.760;8.648;2023-02-11T14:49:45;33.17;;;23.48;;
51216;SDS011;37283;49.760;8.648;2023-02-11T14:52:24;30.75;;;22.55;;
51216;SDS011;37283;49.760;8.648;2023-02-11T14:54:52;30.23;;;22.00;;
51216;SDS011;37283;49.760;8.648;2023-02-11T14:57:32;37.33;;;23.85;;
51216;SDS011;37283;49.760;8.648;2023-02-11T15:00:00;38.63;;;25.83;;
51216;SDS011;37283;49.760;8.648;2023-02-11T15:02:32;35.15;;;24.48;;
51216;SDS011;37283;49.760;8.648;2023-02-11T15:05:14;30.88;;;21.25;;
51216;SDS011;37283;49.760;8.648;2023-02-11T15:07:46;32.38;;;21.98;;
51216;SDS011;37283;49.760;8.648;2023-02-11T15:10:18;35.15;;;21.85;;
51216;SDS011;37283;49.760;8.648;2023-02-11T15:12:48;33.58;;;22.42;;
51216;SDS011;37283;49.760;8.648;2023-02-11T15:15:15;32.15;;;22.05;;
51216;SDS011;37283;49.760;8.648;2023-02-11T15:17:41;32.38;;;22.08;;
51216;SDS011;37283;49.760;8.648;2023-02-11T15:20:20;41.13;;;24.95;;
51216;SDS011;37283;49.760;8.648;2023-02-11T15:22:48;32.17;;;21.42;;
51216;SDS011;37283;49.760;8.648;2023-02-11T15:27:46;25.70;;;18.75;;
51216;SDS011;37283;49.760;8.648;2023-02-11T15:32:46;25.60;;;19.55;;
51216;SDS011;37283;49.760;8.648;2023-02-11T15:35:13;31.05;;;22.45;;
51216;SDS011;37283;49.760;8.648;2023-02-11T15:37:40;28.95;;;20.77;;
51216;SDS011;37283;49.760;8.648;2023-02-11T15:40:08;26.88;;;20.15;;
51216;SDS011;37283;49.760;8.648;2023-02-11T15:42:36;28.10;;;19.50;;
51216;SDS011;37283;49.760;8.648;2023-02-11T15:47:58;27.05;;;20.05;;
51216;SDS011;37283;49.760;8.648;2023-02-11T15:50:35;28.38;;;20.33;;
51216;SDS011;37283;49.760;8.648;2023-02-11T15:56:37;34.50;;;24.60;;
51216;SDS011;37283;49.760;8.648;2023-02-11T15:58:52;31.80;;;20.27;;
51216;SDS011;37283;49.760;8.648;2023-02-11T16:01:30;28.20;;;19.25;;
51216;SDS011;37283;49.760;8.648;2023-02-11T16:03:59;26.35;;;20.27;;
51216;SDS011;37283;49.760;8.648;2023-02-11T16:06:34;25.98;;;18.52;;
51216;SDS011;37283;49.760;8.648;2023-02-11T16:11:35;29.25;;;20.05;;
51216;SDS011;37283;49.760;8.648;2023-02-11T16:19:20;26.88;;;19.67;;
51216;SDS011;37283;49.760;8.648;2023-02-11T16:21:50;26.17;;;18.85;;
51216;SDS011;37283;49.760;8.648;2023-02-11T16:24:18;32.00;;;21.75;;
51216;SDS011;37283;49.760;8.648;2023-02-11T16:26:48;30.30;;;21.10;;
51216;SDS011;37283;49.760;8.648;2023-02-11T16:31:47;24.92;;;17.88;;
51216;SDS011;37283;49.760;8.648;2023-02-11T16:34:16;22.73;;;16.73;;
51216;SDS011;37283;49.760;8.648;2023-02-11T16:36:47;29.15;;;18.27;;
51216;SDS011;37283;49.760;8.648;2023-02-11T16:39:15;25.23;;;18.15;;
51216;SDS011;37283;49.760;8.648;2023-02-11T16:41:42;26.50;;;16.95;;
51216;SDS011;37283;49.760;8.648;2023-02-11T16:44:09;24.27;;;16.98;;
51216;SDS011;37283;49.760;8.648;2023-02-11T16:46:35;26.55;;;17.60;;
51216;SDS011;37283;49.760;8.648;2023-02-11T16:49:08;27.33;;;18.17;;
51216;SDS011;37283;49.760;8.648;2023-02-11T16:51:37;26.17;;;17.85;;
51216;SDS011;37283;49.760;8.648;2023-02-11T16:54:04;26.50;;;18.70;;
51216;SDS011;37283;49.760;8.648;2023-02-11T16:56:31;26.83;;;17.92;;
51216;SDS011;37283;49.760;8.648;2023-02-11T16:58:57;24.27;;;18.25;;
51216;SDS011;37283;49.760;8.648;2023-02-11T17:01:24;25.58;;;18.45;;
51216;SDS011;37283;49.760;8.648;2023-02-11T17:03:50;30.48;;;18.98;;
51216;SDS011;37283;49.760;8.648;2023-02-11T17:06:19;24.73;;;17.23;;
51216;SDS011;37283;49.760;8.648;2023-02-11T17:08:45;25.65;;;18.38;;
51216;SDS011;37283;49.760;8.648;2023-02-11T17:11:12;25.08;;;17.73;;
51216;SDS011;37283;49.760;8.648;2023-02-11T17:13:42;23.80;;;16.77;;
51216;SDS011;37283;49.760;8.648;2023-02-11T17:16:11;23.60;;;16.75;;
51216;SDS011;37283;49.760;8.648;2023-02-11T17:18:42;24.90;;;17.02;;
51216;SDS011;37283;49.760;8.648;2023-02-11T17:21:09;25.77;;;17.30;;